sensor_id;sensor_type;location;lat;lon;timestamp;P1;durP1;ratioP1;P2;durP2;ratioP2
36833;SDS011;48003;52.084;5.224;2023-02-03T00:01:10;11.6;;;2.8;;
36833;SDS011;48003;52.084;5.224;2023-02-03T00:04:22;16.11;;;3.2;;
36833;SDS011;48003;52.084;5.224;2023-02-03T00:05:59;12.4;;;3.1;;
36833;SDS011;48003;52.084;5.224;2023-02-03T00:07:36;14.2;;;3.4;;
36833;SDS011;48003;52.084;5.224;2023-02-03T00:10:50;14.7;;;3.1;;
36833;SDS011;48003;52.084;5.224;2023-02-03T00:12:26;16.7;;;3.2;;
36833;SDS011;48003;52.084;5.224;2023-02-03T00:14:04;11.0;;;2.8;;
36833;SDS011;48003;52.084;5.224;2023-02-03T00:15:40;16.3;;;3.4;;
36833;SDS011;48003;52.084;5.224;2023-02-03T00:18:54;12.8;;;3.6;;
36833;SDS011;48003;52.084;5.224;2023-02-03T00:20:30;11.1;;;3.2;;
36833;SDS011;48003;52.084;5.224;2023-02-03T00:22:07;13.1;;;3.1;;
36833;SDS011;48003;52.084;5.224;2023-02-03T00:25:20;13.3;;;3.3;;
36833;SDS011;48003;52.084;5.224;2023-02-03T00:26:57;14.9;;;3.2;;
36833;SDS011;48003;52.084;5.224;2023-02-03T00:28:33;11.5;;;2.8;;
36833;SDS011;48003;52.084;5.224;2023-02-03T00:31:47;10.4;;;3.2;;
36833;SDS011;48003;52.084;5.224;2023-02-03T00:33:23;15.6;;;3.9;;
36833;SDS011;48003;52.084;5.224;2023-02-03T00:35:00;13.9;;;2.9;;
36833;SDS011;48003;52.084;5.224;2023-02-03T00:36:37;16.11;;;3.7;;
36833;SDS011;48003;52.084;5.224;2023-02-03T00:39:49;12.5;;;3.1;;
36833;SDS011;48003;52.084;5.224;2023-02-03T00:41:27;15.9;;;3.4;;
36833;SDS011;48003;52.084;5.224;2023-02-03T00:43:04;15.1;;;3.3;;
36833;SDS011;48003;52.084;5.224;2023-02-03T00:46:17;15.8;;;3.2;;
36833;SDS011;48003;52.084;5.224;2023-02-03T00:47:53;15.0;;;3.3;;
36833;SDS011;48003;52.084;5.224;2023-02-03T00:49:29;14.3;;;3.4;;
36833;SDS011;48003;52.084;5.224;2023-02-03T00:52:42;14.1;;;2.8;;
36833;SDS011;48003;52.084;5.224;2023-02-03T00:54:19;13.8;;;3.0;;
36833;SDS011;48003;52.084;5.224;2023-02-03T00:55:56;13.8;;;3.0;;
36833;SDS011;48003;52.084;5.224;2023-02-03T00:57:32;16.4;;;3.1;;
36833;SDS011;48003;52.084;5.224;2023-02-03T01:00:44;15.1;;;2.8;;
36833;SDS011;48003;52.084;5.224;2023-02-03T01:02:20;14.2;;;3.2;;
36833;SDS011;48003;52.084;5.224;2023-02-03T01:03:58;10.8;;;2.5;;
36833;SDS011;48003;52.084;5.224;2023-02-03T01:07:12;13.2;;;3.1;;
36833;SDS011;48003;52.084;5.224;2023-02-03T01:08:48;14.9;;;2.7;;
36833;SDS011;48003;52.084;5.224;2023-02-03T01:10:25;12.5;;;2.9;;
36833;SDS011;48003;52.084;5.224;2023-02-03T01:13:37;14.9;;;3.7;;
36833;SDS011;48003;52.084;5.224;2023-02-03T01:15:15;18.5;;;3.2;;
36833;SDS011;48003;52.084;5.224;2023-02-03T01:16:52;14.8;;;2.7;;
36833;SDS011;48003;52.084;5.224;2023-02-03T01:18:28;16.0;;;3.0;;
36833;SDS011;48003;52.084;5.224;2023-02-03T01:21:41;18.11;;;3.5;;
36833;SDS011;48003;52.084;5.224;2023-02-03T01:23:18;11.4;;;2.5;;
36833;SDS011;48003;52.084;5.224;2023-02-03T01:24:54;16.2;;;3.0;;
36833;SDS011;48003;52.084;5.224;2023-02-03T01:28:07;14.1;;;2.4;;
36833;SDS011;48003;52.084;5.224;2023-02-03T01:29:43;13.4;;;3.0;;
36833;SDS011;48003;52.084;5.224;2023-02-03T01:31:20;15.4;;;2.9;;
36833;SDS011;48003;52.084;5.224;2023-02-03T01:34:34;10.1;;;2.4;;
36833;SDS011;48003;52.084;5.224;2023-02-03T01:36:11;18.61;;;3.4;;
36833;SDS011;48003;52.084;5.224;2023-02-03T01:37:48;15.1;;;3.0;;
36833;SDS011;48003;52.084;5.224;2023-02-03T01:39:25;12.1;;;2.6;;
36833;SDS011;48003;52.084;5.224;2023-02-03T01:42:39;11.4;;;2.6;;
36833;SDS011;48003;52.084;5.224;2023-02-03T01:44:48;12.4;;;2.4;;
36833;SDS011;48003;52.084;5.224;2023-02-03T01:46:27;17.91;;;2.5;;
36833;SDS011;48003;52.084;5.224;2023-02-03T01:48:08;12.9;;;2.7;;
36833;SDS011;48003;52.084;5.224;2023-02-03T01:51:27;12.6;;;2.7;;
36833;SDS011;48003;52.084;5.224;2023-02-03T01:53:06;11.8;;;2.6;;
36833;SDS011;48003;52.084;5.224;2023-02-03T01:54:46;13.3;;;2.7;;
36833;SDS011;48003;52.084;5.224;2023-02-03T01:56:26;13.4;;;2.7;;
36833;SDS011;48003;52.084;5.224;2023-02-03T01:59:50;12.2;;;2.7;;
36833;SDS011;48003;52.084;5.224;2023-02-03T02:01:32;13.1;;;2.31;;
36833;SDS011;48003;52.084;5.224;2023-02-03T02:03:10;14.0;;;2.7;;
36833;SDS011;48003;52.084;5.224;2023-02-03T02:04:49;14.4;;;3.0;;
36833;SDS011;48003;52.084;5.224;2023-02-03T02:06:31;9.0;;;2.0;;
36833;SDS011;48003;52.084;5.224;2023-02-03T02:09:46;12.9;;;2.31;;
36833;SDS011;48003;52.084;5.224;2023-02-03T02:11:23;12.2;;;2.31;;
36833;SDS011;48003;52.084;5.224;2023-02-03T02:12:59;10.9;;;2.0;;
36833;SDS011;48003;52.084;5.224;2023-02-03T02:16:20;14.9;;;2.7;;
36833;SDS011;48003;52.084;5.224;2023-02-03T02:18:09;14.5;;;2.7;;
36833;SDS011;48003;52.084;5.224;2023-02-03T02:21:06;12.1;;;2.4;;
36833;SDS011;48003;52.084;5.224;2023-02-03T02:23:04;13.5;;;2.21;;
36833;SDS011;48003;52.084;5.224;2023-02-03T02:25:09;11.1;;;2.4;;
36833;SDS011;48003;52.084;5.224;2023-02-03T02:28:01;13.9;;;2.7;;
36833;SDS011;48003;52.084;5.224;2023-02-03T02:30:47;13.7;;;2.31;;
36833;SDS011;48003;52.084;5.224;2023-02-03T02:32:54;11.4;;;2.31;;
36833;SDS011;48003;52.084;5.224;2023-02-03T02:34:41;13.9;;;2.5;;
36833;SDS011;48003;52.084;5.224;2023-02-03T02:36:26;10.5;;;2.21;;
36833;SDS011;48003;52.084;5.224;2023-02-03T02:38:10;12.5;;;2.1;;
36833;SDS011;48003;52.084;5.224;2023-02-03T02:41:43;13.5;;;2.21;;
36833;SDS011;48003;52.084;5.224;2023-02-03T02:43:28;11.0;;;2.21;;
36833;SDS011;48003;52.084;5.224;2023-02-03T02:46:59;8.5;;;1.8;;
36833;SDS011;48003;52.084;5.224;2023-02-03T02:48:42;11.4;;;2.0;;
36833;SDS011;48003;52.084;5.224;2023-02-03T02:52:07;12.1;;;2.21;;
36833;SDS011;48003;52.084;5.224;2023-02-03T02:53:48;10.9;;;2.1;;
36833;SDS011;48003;52.084;5.224;2023-02-03T02:55:33;10.9;;;2.1;;
36833;SDS011;48003;52.084;5.224;2023-02-03T02:57:14;11.6;;;2.1;;
36833;SDS011;48003;52.084;5.224;2023-02-03T02:58:55;8.6;;;1.8;;
36833;SDS011;48003;52.084;5.224;2023-02-03T03:02:12;13.2;;;2.4;;
36833;SDS011;48003;52.084;5.224;2023-02-03T03:03:49;10.0;;;2.21;;
36833;SDS011;48003;52.084;5.224;2023-02-03T03:05:26;10.3;;;2.0;;
36833;SDS011;48003;52.084;5.224;2023-02-03T03:08:46;8.9;;;2.1;;
36833;SDS011;48003;52.084;5.224;2023-02-03T03:10:28;10.21;;;2.0;;
36833;SDS011;48003;52.084;5.224;2023-02-03T03:12:08;7.3;;;1.7;;
36833;SDS011;48003;52.084;5.224;2023-02-03T03:13:50;11.4;;;2.21;;
36833;SDS011;48003;52.084;5.224;2023-02-03T03:17:10;11.3;;;2.21;;
36833;SDS011;48003;52.084;5.224;2023-02-03T03:18:54;13.0;;;2.4;;
36833;SDS011;48003;52.084;5.224;2023-02-03T03:20:33;11.1;;;1.9;;
36833;SDS011;48003;52.084;5.224;2023-02-03T03:22:13;12.5;;;2.5;;
36833;SDS011;48003;52.084;5.224;2023-02-03T03:25:35;10.3;;;2.0;;
36833;SDS011;48003;52.084;5.224;2023-02-03T03:27:17;11.1;;;2.31;;
36833;SDS011;48003;52.084;5.224;2023-02-03T03:29:01;12.9;;;2.31;;
36833;SDS011;48003;52.084;5.224;2023-02-03T03:30:45;12.9;;;2.31;;
36833;SDS011;48003;52.084;5.224;2023-02-03T03:32:21;10.1;;;2.31;;
36833;SDS011;48003;52.084;5.224;2023-02-03T03:37:21;9.5;;;2.0;;
36833;SDS011;48003;52.084;5.224;2023-02-03T03:39:04;10.0;;;2.1;;
36833;SDS011;48003;52.084;5.224;2023-02-03T03:40:51;10.6;;;2.1;;
36833;SDS011;48003;52.084;5.224;2023-02-03T03:44:19;10.0;;;2.0;;
36833;SDS011;48003;52.084;5.224;2023-02-03T03:46:02;10.4;;;2.4;;
36833;SDS011;48003;52.084;5.224;2023-02-03T03:47:46;12.0;;;2.0;;
36833;SDS011;48003;52.084;5.224;2023-02-03T03:49:28;8.0;;;2.21;;
36833;SDS011;48003;52.084;5.224;2023-02-03T03:51:09;8.5;;;2.1;;
36833;SDS011;48003;52.084;5.224;2023-02-03T03:54:31;10.4;;;1.8;;
36833;SDS011;48003;52.084;5.224;2023-02-03T03:56:10;11.2;;;2.4;;
36833;SDS011;48003;52.084;5.224;2023-02-03T03:57:55;8.1;;;2.0;;
36833;SDS011;48003;52.084;5.224;2023-02-03T03:59:37;9.6;;;2.1;;
36833;SDS011;48003;52.084;5.224;2023-02-03T04:02:57;9.4;;;2.5;;
36833;SDS011;48003;52.084;5.224;2023-02-03T04:04:39;10.8;;;2.31;;
36833;SDS011;48003;52.084;5.224;2023-02-03T04:06:17;10.21;;;1.8;;
36833;SDS011;48003;52.084;5.224;2023-02-03T04:07:53;11.6;;;2.21;;
36833;SDS011;48003;52.084;5.224;2023-02-03T04:11:06;8.71;;;2.1;;
36833;SDS011;48003;52.084;5.224;2023-02-03T04:12:43;10.4;;;2.0;;
36833;SDS011;48003;52.084;5.224;2023-02-03T04:14:19;12.0;;;2.0;;
36833;SDS011;48003;52.084;5.224;2023-02-03T04:17:35;10.1;;;2.1;;
36833;SDS011;48003;52.084;5.224;2023-02-03T04:19:11;8.6;;;1.9;;
36833;SDS011;48003;52.084;5.224;2023-02-03T04:20:47;10.4;;;1.8;;
36833;SDS011;48003;52.084;5.224;2023-02-03T04:23:59;9.6;;;1.9;;
36833;SDS011;48003;52.084;5.224;2023-02-03T04:25:36;11.0;;;2.0;;
36833;SDS011;48003;52.084;5.224;2023-02-03T04:27:12;7.5;;;1.5;;
36833;SDS011;48003;52.084;5.224;2023-02-03T04:28:48;9.81;;;1.7;;
36833;SDS011;48003;52.084;5.224;2023-02-03T04:32:02;9.31;;;1.8;;
36833;SDS011;48003;52.084;5.224;2023-02-03T04:33:38;8.81;;;1.8;;
36833;SDS011;48003;52.084;5.224;2023-02-03T04:35:14;9.4;;;1.8;;
36833;SDS011;48003;52.084;5.224;2023-02-03T04:38:27;10.1;;;1.9;;
36833;SDS011;48003;52.084;5.224;2023-02-03T04:40:04;11.7;;;2.1;;
36833;SDS011;48003;52.084;5.224;2023-02-03T04:41:42;10.8;;;1.8;;
36833;SDS011;48003;52.084;5.224;2023-02-03T04:44:54;11.5;;;1.8;;
36833;SDS011;48003;52.084;5.224;2023-02-03T04:46:30;11.2;;;2.4;;
36833;SDS011;48003;52.084;5.224;2023-02-03T04:48:06;11.4;;;2.1;;
36833;SDS011;48003;52.084;5.224;2023-02-03T04:49:42;9.81;;;1.8;;
36833;SDS011;48003;52.084;5.224;2023-02-03T04:52:57;10.3;;;1.8;;
36833;SDS011;48003;52.084;5.224;2023-02-03T04:54:34;9.9;;;1.8;;
36833;SDS011;48003;52.084;5.224;2023-02-03T04:56:11;11.4;;;1.9;;
36833;SDS011;48003;52.084;5.224;2023-02-03T04:59:30;10.5;;;1.8;;
36833;SDS011;48003;52.084;5.224;2023-02-03T05:01:08;10.0;;;2.1;;
36833;SDS011;48003;52.084;5.224;2023-02-03T05:02:45;8.71;;;1.8;;
36833;SDS011;48003;52.084;5.224;2023-02-03T05:04:21;8.81;;;1.6;;
36833;SDS011;48003;52.084;5.224;2023-02-03T05:07:33;8.31;;;1.6;;
36833;SDS011;48003;52.084;5.224;2023-02-03T05:09:09;9.1;;;1.7;;
36833;SDS011;48003;52.084;5.224;2023-02-03T05:10:45;8.81;;;1.8;;
36833;SDS011;48003;52.084;5.224;2023-02-03T05:13:58;9.31;;;1.8;;
36833;SDS011;48003;52.084;5.224;2023-02-03T05:15:34;8.5;;;1.7;;
36833;SDS011;48003;52.084;5.224;2023-02-03T05:17:10;10.21;;;1.6;;
36833;SDS011;48003;52.084;5.224;2023-02-03T05:20:22;8.4;;;1.9;;
36833;SDS011;48003;52.084;5.224;2023-02-03T05:21:58;8.31;;;1.8;;
36833;SDS011;48003;52.084;5.224;2023-02-03T05:23:35;11.5;;;1.6;;
36833;SDS011;48003;52.084;5.224;2023-02-03T05:26:49;9.6;;;2.0;;
36833;SDS011;48003;52.084;5.224;2023-02-03T05:28:25;7.7;;;1.7;;
36833;SDS011;48003;52.084;5.224;2023-02-03T05:30:01;7.7;;;1.7;;
36833;SDS011;48003;52.084;5.224;2023-02-03T05:31:38;9.0;;;1.6;;
36833;SDS011;48003;52.084;5.224;2023-02-03T05:34:52;8.6;;;1.8;;
36833;SDS011;48003;52.084;5.224;2023-02-03T05:36:28;8.4;;;1.5;;
36833;SDS011;48003;52.084;5.224;2023-02-03T05:38:04;9.1;;;1.8;;
36833;SDS011;48003;52.084;5.224;2023-02-03T05:42:22;11.9;;;1.7;;
36833;SDS011;48003;52.084;5.224;2023-02-03T05:43:58;9.81;;;1.7;;
36833;SDS011;48003;52.084;5.224;2023-02-03T05:45:35;8.2;;;1.9;;
36833;SDS011;48003;52.084;5.224;2023-02-03T05:47:12;10.1;;;1.7;;
36833;SDS011;48003;52.084;5.224;2023-02-03T05:48:49;8.31;;;1.8;;
36833;SDS011;48003;52.084;5.224;2023-02-03T05:50:26;11.0;;;1.6;;
36833;SDS011;48003;52.084;5.224;2023-02-03T05:53:39;10.7;;;1.6;;
36833;SDS011;48003;52.084;5.224;2023-02-03T05:55:15;9.71;;;1.4;;
36833;SDS011;48003;52.084;5.224;2023-02-03T05:56:52;8.5;;;1.5;;
36833;SDS011;48003;52.084;5.224;2023-02-03T06:00:06;9.9;;;1.7;;
36833;SDS011;48003;52.084;5.224;2023-02-03T06:01:44;8.71;;;1.7;;
36833;SDS011;48003;52.084;5.224;2023-02-03T06:03:20;7.7;;;1.6;;
36833;SDS011;48003;52.084;5.224;2023-02-03T06:06:32;10.1;;;1.9;;
36833;SDS011;48003;52.084;5.224;2023-02-03T06:08:09;10.8;;;2.1;;
36833;SDS011;48003;52.084;5.224;2023-02-03T06:09:46;12.5;;;2.0;;
36833;SDS011;48003;52.084;5.224;2023-02-03T06:11:23;11.3;;;1.9;;
36833;SDS011;48003;52.084;5.224;2023-02-03T06:14:44;8.0;;;1.9;;
36833;SDS011;48003;52.084;5.224;2023-02-03T06:16:21;11.2;;;2.21;;
36833;SDS011;48003;52.084;5.224;2023-02-03T06:17:57;9.9;;;2.31;;
36833;SDS011;48003;52.084;5.224;2023-02-03T06:21:10;7.4;;;2.1;;
36833;SDS011;48003;52.084;5.224;2023-02-03T06:22:46;13.8;;;2.0;;
36833;SDS011;48003;52.084;5.224;2023-02-03T06:24:22;9.21;;;1.9;;
36833;SDS011;48003;52.084;5.224;2023-02-03T06:25:59;11.0;;;2.0;;
36833;SDS011;48003;52.084;5.224;2023-02-03T06:29:13;12.8;;;2.0;;
36833;SDS011;48003;52.084;5.224;2023-02-03T06:30:49;12.4;;;2.21;;
36833;SDS011;48003;52.084;5.224;2023-02-03T06:32:26;11.4;;;2.0;;
36833;SDS011;48003;52.084;5.224;2023-02-03T06:35:39;10.5;;;1.7;;
36833;SDS011;48003;52.084;5.224;2023-02-03T06:37:15;12.3;;;1.7;;
36833;SDS011;48003;52.084;5.224;2023-02-03T06:38:53;8.9;;;1.8;;
36833;SDS011;48003;52.084;5.224;2023-02-03T06:42:06;11.4;;;2.0;;
36833;SDS011;48003;52.084;5.224;2023-02-03T06:43:43;11.7;;;1.9;;
36833;SDS011;48003;52.084;5.224;2023-02-03T06:45:19;9.9;;;1.8;;
36833;SDS011;48003;52.084;5.224;2023-02-03T06:46:55;11.0;;;2.31;;
36833;SDS011;48003;52.084;5.224;2023-02-03T06:50:08;10.1;;;2.0;;
36833;SDS011;48003;52.084;5.224;2023-02-03T06:51:47;12.5;;;2.21;;
36833;SDS011;48003;52.084;5.224;2023-02-03T06:53:23;12.5;;;2.21;;
36833;SDS011;48003;52.084;5.224;2023-02-03T06:56:35;13.2;;;2.0;;
36833;SDS011;48003;52.084;5.224;2023-02-03T06:58:12;15.7;;;2.31;;
36833;SDS011;48003;52.084;5.224;2023-02-03T06:59:49;12.1;;;2.1;;
36833;SDS011;48003;52.084;5.224;2023-02-03T07:03:01;9.9;;;2.31;;
36833;SDS011;48003;52.084;5.224;2023-02-03T07:04:38;12.8;;;2.21;;
36833;SDS011;48003;52.084;5.224;2023-02-03T07:06:14;13.3;;;3.0;;
36833;SDS011;48003;52.084;5.224;2023-02-03T07:07:50;11.0;;;2.31;;
36833;SDS011;48003;52.084;5.224;2023-02-03T07:11:03;11.1;;;2.4;;
36833;SDS011;48003;52.084;5.224;2023-02-03T07:12:40;11.0;;;2.0;;
36833;SDS011;48003;52.084;5.224;2023-02-03T07:14:17;12.2;;;2.21;;
36833;SDS011;48003;52.084;5.224;2023-02-03T07:17:29;10.8;;;2.1;;
36833;SDS011;48003;52.084;5.224;2023-02-03T07:19:06;8.6;;;1.9;;
36833;SDS011;48003;52.084;5.224;2023-02-03T07:20:42;9.31;;;2.1;;
36833;SDS011;48003;52.084;5.224;2023-02-03T07:23:55;10.21;;;2.5;;
36833;SDS011;48003;52.084;5.224;2023-02-03T07:25:31;10.0;;;1.9;;
36833;SDS011;48003;52.084;5.224;2023-02-03T07:27:07;11.1;;;2.0;;
36833;SDS011;48003;52.084;5.224;2023-02-03T07:28:43;10.21;;;2.31;;
36833;SDS011;48003;52.084;5.224;2023-02-03T07:31:56;12.5;;;2.31;;
36833;SDS011;48003;52.084;5.224;2023-02-03T07:33:32;12.3;;;2.1;;
36833;SDS011;48003;52.084;5.224;2023-02-03T07:35:09;8.81;;;1.9;;
36833;SDS011;48003;52.084;5.224;2023-02-03T07:38:22;9.31;;;1.8;;
36833;SDS011;48003;52.084;5.224;2023-02-03T07:39:59;10.5;;;2.31;;
36833;SDS011;48003;52.084;5.224;2023-02-03T07:41:35;15.4;;;2.7;;
36833;SDS011;48003;52.084;5.224;2023-02-03T07:44:47;10.21;;;2.21;;
36833;SDS011;48003;52.084;5.224;2023-02-03T07:46:24;11.0;;;2.31;;
36833;SDS011;48003;52.084;5.224;2023-02-03T07:48:00;16.9;;;2.31;;
36833;SDS011;48003;52.084;5.224;2023-02-03T07:52:49;16.9;;;2.6;;
36833;SDS011;48003;52.084;5.224;2023-02-03T07:54:26;9.6;;;1.9;;
36833;SDS011;48003;52.084;5.224;2023-02-03T07:56:02;11.1;;;2.1;;
36833;SDS011;48003;52.084;5.224;2023-02-03T07:59:19;13.6;;;2.5;;
36833;SDS011;48003;52.084;5.224;2023-02-03T08:00:55;12.4;;;2.5;;
36833;SDS011;48003;52.084;5.224;2023-02-03T08:02:32;11.0;;;2.1;;
36833;SDS011;48003;52.084;5.224;2023-02-03T08:05:48;9.6;;;2.1;;
36833;SDS011;48003;52.084;5.224;2023-02-03T08:07:25;11.4;;;2.21;;
36833;SDS011;48003;52.084;5.224;2023-02-03T08:09:01;10.5;;;2.21;;
36833;SDS011;48003;52.084;5.224;2023-02-03T08:10:37;11.9;;;2.21;;
36833;SDS011;48003;52.084;5.224;2023-02-03T08:13:50;11.0;;;2.0;;
36833;SDS011;48003;52.084;5.224;2023-02-03T08:15:26;14.8;;;2.4;;
36833;SDS011;48003;52.084;5.224;2023-02-03T08:17:02;10.1;;;2.21;;
36833;SDS011;48003;52.084;5.224;2023-02-03T08:20:15;9.4;;;2.6;;
36833;SDS011;48003;52.084;5.224;2023-02-03T08:21:52;13.6;;;2.21;;
36833;SDS011;48003;52.084;5.224;2023-02-03T08:23:28;13.6;;;2.6;;
36833;SDS011;48003;52.084;5.224;2023-02-03T08:26:41;14.1;;;2.31;;
36833;SDS011;48003;52.084;5.224;2023-02-03T08:28:18;9.81;;;2.21;;
36833;SDS011;48003;52.084;5.224;2023-02-03T08:29:55;10.4;;;2.4;;
36833;SDS011;48003;52.084;5.224;2023-02-03T08:31:31;10.4;;;2.4;;
36833;SDS011;48003;52.084;5.224;2023-02-03T08:34:43;15.1;;;2.4;;
36833;SDS011;48003;52.084;5.224;2023-02-03T08:36:21;14.0;;;2.5;;
36833;SDS011;48003;52.084;5.224;2023-02-03T08:37:58;14.0;;;2.5;;
36833;SDS011;48003;52.084;5.224;2023-02-03T08:41:12;13.5;;;2.6;;
36833;SDS011;48003;52.084;5.224;2023-02-03T08:42:51;11.6;;;2.1;;
36833;SDS011;48003;52.084;5.224;2023-02-03T08:44:28;9.31;;;1.9;;
36833;SDS011;48003;52.084;5.224;2023-02-03T08:46:06;15.5;;;2.6;;
36833;SDS011;48003;52.084;5.224;2023-02-03T08:49:22;14.7;;;2.31;;
36833;SDS011;48003;52.084;5.224;2023-02-03T08:51:00;12.0;;;2.21;;
36833;SDS011;48003;52.084;5.224;2023-02-03T08:52:37;10.8;;;2.21;;
36833;SDS011;48003;52.084;5.224;2023-02-03T08:55:50;11.7;;;2.1;;
36833;SDS011;48003;52.084;5.224;2023-02-03T08:57:30;13.3;;;2.6;;
36833;SDS011;48003;52.084;5.224;2023-02-03T08:59:08;13.5;;;2.31;;
36833;SDS011;48003;52.084;5.224;2023-02-03T09:00:44;12.6;;;2.8;;
36833;SDS011;48003;52.084;5.224;2023-02-03T09:04:01;15.4;;;2.4;;
36833;SDS011;48003;52.084;5.224;2023-02-03T09:05:37;13.5;;;2.31;;
36833;SDS011;48003;52.084;5.224;2023-02-03T09:07:14;12.7;;;2.5;;
36833;SDS011;48003;52.084;5.224;2023-02-03T09:10:27;11.4;;;2.21;;
36833;SDS011;48003;52.084;5.224;2023-02-03T09:12:04;13.5;;;2.4;;
36833;SDS011;48003;52.084;5.224;2023-02-03T09:13:44;11.3;;;2.5;;
36833;SDS011;48003;52.084;5.224;2023-02-03T09:15:22;11.8;;;2.4;;
36833;SDS011;48003;52.084;5.224;2023-02-03T09:18:35;15.0;;;2.4;;
36833;SDS011;48003;52.084;5.224;2023-02-03T09:20:14;15.1;;;2.5;;
36833;SDS011;48003;52.084;5.224;2023-02-03T09:21:50;10.6;;;2.21;;
36833;SDS011;48003;52.084;5.224;2023-02-03T09:25:03;13.3;;;2.5;;
36833;SDS011;48003;52.084;5.224;2023-02-03T09:26:40;11.6;;;2.5;;
36833;SDS011;48003;52.084;5.224;2023-02-03T09:28:16;9.1;;;2.1;;
36833;SDS011;48003;52.084;5.224;2023-02-03T09:31:29;15.0;;;2.6;;
36833;SDS011;48003;52.084;5.224;2023-02-03T09:33:05;10.9;;;2.21;;
36833;SDS011;48003;52.084;5.224;2023-02-03T09:34:41;10.9;;;2.21;;
36833;SDS011;48003;52.084;5.224;2023-02-03T09:36:17;12.7;;;2.1;;
36833;SDS011;48003;52.084;5.224;2023-02-03T09:39:29;12.4;;;2.21;;
36833;SDS011;48003;52.084;5.224;2023-02-03T09:41:10;11.1;;;2.31;;
36833;SDS011;48003;52.084;5.224;2023-02-03T09:43:02;11.1;;;2.5;;
36833;SDS011;48003;52.084;5.224;2023-02-03T09:45:09;10.0;;;2.21;;
36833;SDS011;48003;52.084;5.224;2023-02-03T09:46:54;11.8;;;2.4;;
36833;SDS011;48003;52.084;5.224;2023-02-03T09:50:17;13.4;;;2.21;;
36833;SDS011;48003;52.084;5.224;2023-02-03T09:51:58;12.9;;;2.4;;
36833;SDS011;48003;52.084;5.224;2023-02-03T09:53:43;8.6;;;2.4;;
36833;SDS011;48003;52.084;5.224;2023-02-03T09:55:27;10.3;;;2.21;;
36833;SDS011;48003;52.084;5.224;2023-02-03T09:58:53;8.71;;;2.0;;
36833;SDS011;48003;52.084;5.224;2023-02-03T10:00:29;10.3;;;2.1;;
36833;SDS011;48003;52.084;5.224;2023-02-03T10:02:15;9.81;;;2.1;;
36833;SDS011;48003;52.084;5.224;2023-02-03T10:04:12;12.1;;;2.21;;
36833;SDS011;48003;52.084;5.224;2023-02-03T10:06:09;8.71;;;2.0;;
36833;SDS011;48003;52.084;5.224;2023-02-03T10:07:55;8.81;;;1.8;;
36833;SDS011;48003;52.084;5.224;2023-02-03T10:11:36;11.0;;;1.9;;
36833;SDS011;48003;52.084;5.224;2023-02-03T10:13:47;9.71;;;2.0;;
36833;SDS011;48003;52.084;5.224;2023-02-03T10:15:43;11.7;;;1.9;;
36833;SDS011;48003;52.084;5.224;2023-02-03T10:17:45;10.7;;;2.0;;
36833;SDS011;48003;52.084;5.224;2023-02-03T10:19:32;9.5;;;2.0;;
36833;SDS011;48003;52.084;5.224;2023-02-03T10:21:24;10.21;;;2.21;;
36833;SDS011;48003;52.084;5.224;2023-02-03T10:23:11;11.7;;;2.21;;
36833;SDS011;48003;52.084;5.224;2023-02-03T10:24:52;10.21;;;1.9;;
36833;SDS011;48003;52.084;5.224;2023-02-03T10:26:35;10.6;;;2.0;;
36833;SDS011;48003;52.084;5.224;2023-02-03T10:29:57;10.1;;;2.31;;
36833;SDS011;48003;52.084;5.224;2023-02-03T10:31:39;10.0;;;1.8;;
36833;SDS011;48003;52.084;5.224;2023-02-03T10:33:17;8.2;;;2.0;;
36833;SDS011;48003;52.084;5.224;2023-02-03T10:34:54;9.71;;;2.0;;
36833;SDS011;48003;52.084;5.224;2023-02-03T10:38:33;11.6;;;2.0;;
36833;SDS011;48003;52.084;5.224;2023-02-03T10:40:20;8.71;;;1.6;;
36833;SDS011;48003;52.084;5.224;2023-02-03T10:42:01;12.0;;;2.31;;
36833;SDS011;48003;52.084;5.224;2023-02-03T10:43:47;13.3;;;2.4;;
36833;SDS011;48003;52.084;5.224;2023-02-03T10:45:25;10.3;;;2.31;;
36833;SDS011;48003;52.084;5.224;2023-02-03T10:48:45;10.3;;;2.21;;
36833;SDS011;48003;52.084;5.224;2023-02-03T10:50:24;8.31;;;1.8;;
36833;SDS011;48003;52.084;5.224;2023-02-03T10:52:03;11.3;;;2.21;;
36833;SDS011;48003;52.084;5.224;2023-02-03T10:55:31;13.6;;;2.31;;
36833;SDS011;48003;52.084;5.224;2023-02-03T10:57:09;13.4;;;2.4;;
36833;SDS011;48003;52.084;5.224;2023-02-03T10:58:50;10.5;;;2.0;;
36833;SDS011;48003;52.084;5.224;2023-02-03T11:00:30;10.1;;;2.31;;
36833;SDS011;48003;52.084;5.224;2023-02-03T11:02:09;10.7;;;1.9;;
36833;SDS011;48003;52.084;5.224;2023-02-03T11:05:42;8.81;;;2.21;;
36833;SDS011;48003;52.084;5.224;2023-02-03T11:07:22;9.4;;;2.1;;
36833;SDS011;48003;52.084;5.224;2023-02-03T11:09:01;8.5;;;1.9;;
36833;SDS011;48003;52.084;5.224;2023-02-03T11:11:00;9.81;;;2.21;;
36833;SDS011;48003;52.084;5.224;2023-02-03T11:12:38;8.31;;;2.21;;
36833;SDS011;48003;52.084;5.224;2023-02-03T11:15:53;8.31;;;2.21;;
36833;SDS011;48003;52.084;5.224;2023-02-03T11:17:34;9.0;;;2.0;;
36833;SDS011;48003;52.084;5.224;2023-02-03T11:19:13;9.81;;;2.31;;
36833;SDS011;48003;52.084;5.224;2023-02-03T11:22:29;10.21;;;2.21;;
36833;SDS011;48003;52.084;5.224;2023-02-03T11:24:12;9.4;;;1.9;;
36833;SDS011;48003;52.084;5.224;2023-02-03T11:25:54;11.6;;;2.1;;
36833;SDS011;48003;52.084;5.224;2023-02-03T11:27:31;7.9;;;2.5;;
36833;SDS011;48003;52.084;5.224;2023-02-03T11:30:54;9.6;;;2.1;;
36833;SDS011;48003;52.084;5.224;2023-02-03T11:32:34;7.5;;;2.0;;
36833;SDS011;48003;52.084;5.224;2023-02-03T11:34:14;11.0;;;1.9;;
36833;SDS011;48003;52.084;5.224;2023-02-03T11:35:53;11.9;;;2.1;;
36833;SDS011;48003;52.084;5.224;2023-02-03T11:39:18;9.31;;;1.9;;
36833;SDS011;48003;52.084;5.224;2023-02-03T11:40:59;9.1;;;2.0;;
36833;SDS011;48003;52.084;5.224;2023-02-03T11:42:37;10.0;;;2.31;;
36833;SDS011;48003;52.084;5.224;2023-02-03T11:44:20;10.1;;;2.31;;
36833;SDS011;48003;52.084;5.224;2023-02-03T11:45:59;12.0;;;1.9;;
36833;SDS011;48003;52.084;5.224;2023-02-03T11:49:56;7.7;;;2.1;;
36833;SDS011;48003;52.084;5.224;2023-02-03T11:51:55;8.2;;;2.0;;
36833;SDS011;48003;52.084;5.224;2023-02-03T11:53:47;10.0;;;2.5;;
36833;SDS011;48003;52.084;5.224;2023-02-03T11:55:40;9.9;;;1.9;;
36833;SDS011;48003;52.084;5.224;2023-02-03T11:57:31;10.6;;;2.0;;
36833;SDS011;48003;52.084;5.224;2023-02-03T11:59:23;7.5;;;2.0;;
36833;SDS011;48003;52.084;5.224;2023-02-03T12:01:18;8.1;;;1.9;;
36833;SDS011;48003;52.084;5.224;2023-02-03T12:03:28;9.31;;;2.0;;
36833;SDS011;48003;52.084;5.224;2023-02-03T12:05:32;11.3;;;2.4;;
36833;SDS011;48003;52.084;5.224;2023-02-03T12:07:29;7.4;;;2.1;;
36833;SDS011;48003;52.084;5.224;2023-02-03T12:10:14;10.3;;;2.21;;
36833;SDS011;48003;52.084;5.224;2023-02-03T12:12:06;8.6;;;1.9;;
36833;SDS011;48003;52.084;5.224;2023-02-03T12:15:03;10.6;;;2.31;;
36833;SDS011;48003;52.084;5.224;2023-02-03T12:17:03;8.9;;;2.21;;
36833;SDS011;48003;52.084;5.224;2023-02-03T12:19:04;8.9;;;2.21;;
36833;SDS011;48003;52.084;5.224;2023-02-03T12:20:53;11.7;;;2.21;;
36833;SDS011;48003;52.084;5.224;2023-02-03T12:22:45;16.2;;;2.6;;
36833;SDS011;48003;52.084;5.224;2023-02-03T12:24:34;11.5;;;2.21;;
36833;SDS011;48003;52.084;5.224;2023-02-03T12:26:23;12.9;;;2.31;;
36833;SDS011;48003;52.084;5.224;2023-02-03T12:28:04;12.7;;;2.4;;
36833;SDS011;48003;52.084;5.224;2023-02-03T12:29:57;12.4;;;2.6;;
36833;SDS011;48003;52.084;5.224;2023-02-03T12:33:22;11.7;;;2.4;;
36833;SDS011;48003;52.084;5.224;2023-02-03T12:35:09;9.31;;;2.21;;
36833;SDS011;48003;52.084;5.224;2023-02-03T12:36:55;8.31;;;2.1;;
36833;SDS011;48003;52.084;5.224;2023-02-03T12:38:38;11.0;;;2.5;;
36833;SDS011;48003;52.084;5.224;2023-02-03T12:42:12;11.0;;;2.6;;
36833;SDS011;48003;52.084;5.224;2023-02-03T12:43:57;11.6;;;2.9;;
36833;SDS011;48003;52.084;5.224;2023-02-03T12:45:37;10.4;;;2.6;;
36833;SDS011;48003;52.084;5.224;2023-02-03T12:47:17;12.5;;;2.6;;
36833;SDS011;48003;52.084;5.224;2023-02-03T12:49:02;12.7;;;2.6;;
36833;SDS011;48003;52.084;5.224;2023-02-03T12:52:31;10.7;;;2.8;;
36833;SDS011;48003;52.084;5.224;2023-02-03T12:54:20;14.7;;;2.9;;
36833;SDS011;48003;52.084;5.224;2023-02-03T12:56:10;14.1;;;3.1;;